Tiempo atmosférico en la estación meteorológica de Banyalbufar, Illes Balears (60 m.)



Fecha
DESCASC
Temp. máxima en grados centígrados (hora)
DESCASC
Temp. mínima en grados centígrados (hora)
DESCASC
Temp. media en grados centígrados
DESCASC
Racha de viento máxima en m/sg (hora)
DESCASC
Velocidad máxima media en intervalos de 10 minutos(hora)
DESCASC
Precipitaciones diarias en mm
DESCASC
Precipitaciones de 00:00 a 06:00 en mm
DESCASC
Precipitaciones de 06:00 a 12:00 en mm
DESCASC
Precipitaciones de 12:00 a 18:00 en mm
DESCASC
Precipitaciones de 18:00 a 24:00 en mm
DESCASC
30-11-2020 18.9 (13:40) 11.3 (07:50) 15.1 4.72 (07:00) 3.89 (07:00) 0 0 0 0 0
29-11-2020 16.9 (14:30) 13.6 (00:00) 15.3 12.78 (01:30) 8.33 (01:30) 3.8 3.6 0.2 0 0
28-11-2020 17.5 (13:50) 12.3 (00:00) 14.9 12.78 (15:50) 7.5 (07:00) 24.2 12.6 1.2 5 5.4
27-11-2020 19.2 (13:10) 13.8 (00:00) 16.5 13.33 (05:20) 6.39 (15:20) 8.4 0 0 1.8 6.6
26-11-2020 19 (14:10) 16.1 (00:00) 17.6 17.78 (14:00) 10 (16:30) 0 0 0 0 0
25-11-2020 19.6 (14:00) 13.1 (00:00) 16.4 11.11 (22:10) 5.28 (22:10) 0 0 0 0 0
24-11-2020 18 (14:40) 11 (00:00) 14.5 7.78 (14:20) 3.89 (15:40) 0 0 0 0 0
23-11-2020 17.5 (11:50) 11 (00:00) 14.3 4.72 (21:30) 3.61 (21:30) 0 0 0 0 0
22-11-2020 15.7 (14:00) 11.5 (00:00) 13.6 8.06 (10:20) 5 (11:40) 0 0 0 0 0
21-11-2020 14.7 (14:00) 13.6 (00:00) 14.2 12.78 (03:30) 7.78 (05:10) 0 0 0 0 0
20-11-2020 17.2 (15:20) 12.7 (00:00) 15 10.83 (22:20) 5.83 (22:10) 0.2 0 0.2 0 0
19-11-2020 20.5 (15:30) 13.9 (00:00) 17.2 6.11 (22:40) 3.89 (22:20) 0 0 0 0 0
18-11-2020 20.3 (15:20) 13.6 (00:00) 16.9 4.17 (09:20) 3.33 (10:00) 0 0 0 0 0
17-11-2020 19.4 (15:10) 14 (00:00) 16.7 3.89 (06:40) 3.06 (02:50) 0 0 0 0 0
16-11-2020 21.6 (00:00) 14.9 (00:00) 18.3 10.56 (03:40) 6.11 (03:40) 0 0 0 0 0
15-11-2020 21.7 (23:40) 16.5 (00:00) 19.1 13.06 (20:10) 7.22 (20:10) 0 0 0 0 0
14-11-2020 20.4 (12:40) 16 (00:00) 18.2 5 (01:40) 3.33 (16:40) 0 0 0 0 0
13-11-2020 20.6 (15:50) 14.6 (00:00) 17.6 6.67 (09:30) 3.89 (09:00) 0 0 0 0 0
12-11-2020 20.1 (12:10) 13.7 (00:00) 16.9 5.28 (01:00) 3.06 (23:30) 0 0 0 0 0
11-11-2020 19.2 (11:40) 13.2 (00:00) 16.2 4.17 (01:30) 3.33 (06:00) 0 0 0 0 0
10-11-2020 19.7 (14:20) 14.1 (00:00) 16.9 5.28 (17:10) 3.33 (02:20) 0 0 0 0 0
09-11-2020 19.9 (13:40) 14.3 (00:00) 17.1 3.89 (00:50) 3.33 (00:50) 0 0 0 0 0
08-11-2020 21.2 (11:10) 14.7 (00:00) 18 5 (00:30) 3.61 (06:30) 0 0 0 0 0
07-11-2020 23.2 (14:50) 16.7 (00:00) 20 17.5 (00:10) 10.56 (00:20) 12.6 0 12.6 0 0
06-11-2020 23.1 (14:40) 19.9 (00:00) 21.5 22.5 (17:50) 13.89 (18:20) 0 0 0 0 0
05-11-2020 20.6 (12:50) 16.4 (00:00) 18.5 21.39 (23:20) 13.06 (23:10) 0 0 0 0 0
04-11-2020 19.1 (12:30) 16.6 (00:00) 17.9 9.44 (21:00) 5.56 (15:00) 0 0 0 0 0
03-11-2020 20.4 (14:10) 14.9 (00:00) 17.6 5.28 (11:30) 3.33 (16:40) 0 0 0 0 0
02-11-2020 21.4 (16:20) 14.3 (00:00) 17.8 4.72 (18:30) 3.61 (18:30) 0 0 0 0 0

Gráficas

Temp. máximas Temp. mínimas Temp. medias Precipitaciones Rachas de viento máximas Velocidades máximas media en intervalos de 10 minutos

Datos horarios

Fecha y hora oficial Temperatura (ºC) Velocidad del viento (km/h) Dirección del viento Racha (km/h) Dirección de racha Precipitación (mm) Presión (hPa) Tendencia (hPa) Humedad (%)
2020-12-01 23:00:00 15 10 Noroeste 20 Norte 0 -- -- 65
2020-12-01 22:00:00 15 10 Noroeste 17 Noroeste 0 -- -- 70
2020-12-01 21:00:00 15 9 Noroeste 18 Norte 0 -- -- 69
2020-12-01 20:00:00 14.8 8 Noroeste 15 Norte 0 -- -- 71
2020-12-01 19:00:00 13.4 8 Sur 10 Sur 0 -- -- 84
2020-12-01 18:00:00 14 7 Sur 9 Sur 0 -- -- 82
2020-12-01 17:00:00 15.4 5 Noroeste 12 Noroeste 0 -- -- 75
2020-12-01 16:00:00 15.7 6 Norte 18 Norte 0 -- -- 75
2020-12-01 15:00:00 16.1 7 Norte 18 Norte 0 -- -- 77
2020-12-01 14:00:00 17.7 4 Oeste 8 Sur 0 -- -- 69
2020-12-01 13:00:00 17.3 0 Calma 5 Sur 0 -- -- 72
2020-12-01 12:00:00 16.5 3 Este 7 Nordeste 0 -- -- 73
2020-12-01 11:00:00 15.8 2 Sur 5 Sur 0 -- -- 78
2020-12-01 10:00:00 15.5 4 Sudoeste 10 Norte 0 -- -- 81
2020-12-01 09:00:00 14.1 6 Sur 11 Sur 0 -- -- 89
2020-12-01 08:00:00 13.9 6 Sur 10 Sur 0 -- -- 88
2020-12-01 07:00:00 13.5 6 Sur 12 Sur 0 -- -- 89
2020-12-01 06:00:00 12.9 11 Sur 13 Sur 0 -- -- 90
2020-12-01 05:00:00 12.9 10 Sur 13 Sur 0 -- -- 88
2020-12-01 04:00:00 12.3 10 Sur 13 Sur 0 -- -- 89
2020-12-01 03:00:00 12.4 10 Sur 13 Sur 0 -- -- 88
2020-12-01 02:00:00 12.2 10 Sur 13 Sur 0 -- -- 85
2020-12-01 01:00:00 12.2 10 Sur 13 Sur 0 -- -- 85
2020-12-01 00:00:00 12.3 9 Sur 14 Sur 0 -- -- 83
2020-11-30 23:00:00 12.4 9 Sur 12 Sur 0 -- -- 81
2020-11-30 22:00:00 13.5 8 Sur 10 Sur 0 -- -- 76
2020-11-30 21:00:00 13.7 9 Sur 10 Sur 0 -- -- 76
2020-11-30 20:00:00 13.1 7 Sur 9 Sur 0 -- -- 83
2020-11-30 19:00:00 12.8 8 Sur 13 Sur 0 -- -- 83
2020-11-30 18:00:00 12.9 10 Sur 13 Sur 0 -- -- 82
2020-11-30 17:00:00 14.1 6 Sur 12 Sur 0 -- -- 76
2020-11-30 16:00:00 14.4 10 Sur 13 Sur 0 -- -- 75
2020-11-30 15:00:00 16.6 9 Sur 12 Sur 0 -- -- 69
2020-11-30 14:00:00 18.1 7 Sur 9 Sur 0 -- -- 65
2020-11-30 13:00:00 18 3 Sur 10 Sur 0 -- -- 62
2020-11-30 12:00:00 16.3 5 Sur 13 Sur 0 -- -- 67
2020-11-30 11:00:00 14.5 10 Sur 14 Sur 0 -- -- 71
2020-11-30 10:00:00 12.2 8 Sur 15 Sur 0 -- -- 74
2020-11-30 09:00:00 11.8 13 Sur 15 Sur 0 -- -- 73
2020-11-30 08:00:00 11.4 13 Sur 16 Sur 0 -- -- 73
2020-11-30 07:00:00 11.6 14 Sur 17 Sur 0 -- -- 78
2020-11-30 06:00:00 12.8 8 Sur 11 Sur 0 -- -- 79
2020-11-30 05:00:00 12.9 8 Sur 12 Sur 0 -- -- 82
2020-11-30 04:00:00 13.2 8 Sur 10 Sur 0 -- -- 82
2020-11-30 03:00:00 13.2 7 Sur 12 Sur 0 -- -- 81
2020-11-30 02:00:00 13.4 8 Sur 12 Sudeste 0 -- -- 82
2020-11-30 01:00:00 13.6 8 Sur 11 Sudeste 0 -- -- 80
2020-11-30 00:00:00 13.6 9 Sudeste 14 Sudeste 0 -- -- 74
2020-11-29 23:00:00 13.7 9 Sudeste 17 Sudeste 0 -- -- 67
2020-11-29 22:00:00 13.9 8 Sudeste 13 Sudeste 0 -- -- 75
2020-11-29 21:00:00 13.9 9 Sudeste 14 Este 0 -- -- 81
2020-11-29 20:00:00 14.6 8 Sudeste 14 Sudeste 0 -- -- 80
2020-11-29 19:00:00 15.4 8 Sudeste 17 Nordeste 0 -- -- 78
2020-11-29 18:00:00 16.1 5 Sudeste 21 Nordeste 0 -- -- 76
2020-11-29 17:00:00 16.5 13 Nordeste 25 Nordeste 0 -- -- 76
2020-11-29 16:00:00 16.6 11 Nordeste 21 Nordeste 0 -- -- 76
2020-11-29 15:00:00 16.8 14 Nordeste 25 Nordeste 0 -- -- 77
2020-11-29 14:00:00 16.6 16 Nordeste 29 Norte 0 -- -- 77
2020-11-29 13:00:00 16.7 19 Norte 30 Norte 0 -- -- 78
2020-11-29 12:00:00 16.8 16 Norte 29 Norte 0 -- -- 76
2020-11-29 11:00:00 16.8 16 Norte 28 Nordeste 0 -- -- 77
2020-11-29 10:00:00 16.6 13 Nordeste 34 Nordeste 0 -- -- 77
2020-11-29 09:00:00 16.6 21 Nordeste 35 Nordeste 0 -- -- 78
2020-11-29 08:00:00 16.4 22 Norte 40 Norte 0.2 -- -- 81
2020-11-29 07:00:00 16.6 16 Norte 32 Norte 0 -- -- 78
2020-11-29 06:00:00 16.1 19 Nordeste 39 Nordeste 0 -- -- 79
2020-11-29 05:00:00 16.2 22 Nordeste 43 Norte 0.2 -- -- 82
2020-11-29 04:00:00 15.9 20 Norte 31 Norte 0 -- -- 84
2020-11-29 03:00:00 14.4 12 Nordeste 31 Nordeste 1.6 -- -- 92
2020-11-29 02:00:00 15 14 Norte 46 Norte 1.8 -- -- 91
2020-11-29 01:00:00 14.4 7 Sur 21 Sudeste 0 -- -- 89
2020-11-29 00:00:00 13.9 6 Sudeste 18 Sudeste 5 -- -- 90
2020-11-28 23:00:00 14.1 12 Sur 17 Sudoeste 0 -- -- 90
2020-11-28 22:00:00 14.4 6 Sudeste 14 Sudeste 0 -- -- 85
2020-11-28 21:00:00 14.4 7 Sudeste 22 Este 0.4 -- -- 84
2020-11-28 20:00:00 15.1 8 Sudeste 17 Este 0 -- -- 78
2020-11-28 19:00:00 14.7 7 Sudeste 19 Este 0 -- -- 79
2020-11-28 18:00:00 15.5 12 Nordeste 26 Norte 0 -- -- 80
2020-11-28 17:00:00 15.3 5 Sudeste 40 Nordeste 0 -- -- 87
2020-11-28 16:00:00 16.1 27 Nordeste 46 Nordeste 5 -- -- 85
2020-11-28 15:00:00 17 17 Nordeste 31 Nordeste 0 -- -- 70
2020-11-28 14:00:00 17.5 3 Sur 10 Sur 0 -- -- 70
2020-11-28 13:00:00 17.1 4 Este 15 Nordeste 0 -- -- 71
2020-11-28 12:00:00 16.1 6 Este 27 Este 0 -- -- 75
2020-11-28 11:00:00 15.6 13 Este 21 Este 0 -- -- 76
2020-11-28 10:00:00 14.8 6 Sudeste 14 Este 0 -- -- 78
2020-11-28 09:00:00 14.4 6 Sudeste 27 Norte 0 -- -- 81
2020-11-28 08:00:00 14.9 22 Norte 39 Norte 0.2 -- -- 78
2020-11-28 07:00:00 14.7 27 Norte 38 Norte 1 -- -- 87
2020-11-28 06:00:00 12.7 8 Sur 23 Sudoeste 4.2 -- -- 91
2020-11-28 05:00:00 13.6 4 Sur 19 Nordeste 5.8 -- -- 91
2020-11-28 04:00:00 13.2 7 Sudeste 15 Sur 1.8 -- -- 90
2020-11-28 03:00:00 13.7 10 Sur 19 Sur 0.4 -- -- 87
2020-11-28 02:00:00 14 12 Sudoeste 27 Sur 0 -- -- 85
2020-11-28 01:00:00 13.7 12 Sudoeste 19 Sudoeste 0.4 -- -- 87
2020-11-28 00:00:00 14.6 6 Sur 41 Sur 6.4 -- -- 78
2020-11-27 23:00:00 17.6 4 Sur 22 Este 0 -- -- 76
2020-11-27 22:00:00 17.1 8 Este 23 Sudeste 0 -- -- 73
2020-11-27 21:00:00 16.7 8 Sudeste 22 Sudeste 0 -- -- 74
2020-11-27 20:00:00 16.9 7 Sudeste 24 Sudeste 0 -- -- 72
2020-11-27 19:00:00 17.5 11 Este 27 Este 0.2 -- -- 72
2020-11-27 18:00:00 17.4 10 Sudeste 28 Sudeste 0 -- -- 72
2020-11-27 17:00:00 17.4 12 Este 26 Este 0 -- -- 72
2020-11-27 16:00:00 16.8 12 Sur 40 Sudeste 1.6 -- -- 77
2020-11-27 15:00:00 17.6 21 Sudeste 42 Sudeste 0.2 -- -- 74
2020-11-27 14:00:00 18.7 14 Este 37 Este 0 -- -- 59
2020-11-27 13:00:00 18.8 12 Este 31 Sudeste 0 -- -- 64
2020-11-27 12:00:00 18.2 9 Nordeste 22 Sudeste 0 -- -- 64
2020-11-27 11:00:00 18.1 10 Este 27 Este 0 -- -- 65
2020-11-27 10:00:00 17.5 7 Este 26 Sudeste 0 -- -- 69
2020-11-27 09:00:00 17.5 10 Este 24 Sudeste 0 -- -- 70
2020-11-27 08:00:00 17.3 9 Este 26 Sudeste 0 -- -- 74
2020-11-27 07:00:00 17.5 10 Nordeste 31 Este 0 -- -- 73
2020-11-27 06:00:00 17.1 9 Sudeste 48 Sudeste 0 -- -- 75
2020-11-27 05:00:00 17.1 12 Sudeste 33 Sudeste 0 -- -- 75
2020-11-27 04:00:00 17.2 15 Sudeste 37 Este 0 -- -- 74
2020-11-27 03:00:00 17.2 8 Este 33 Este 0 -- -- 73
2020-11-27 02:00:00 17.4 13 Este 31 Este 0 -- -- 75
2020-11-27 01:00:00 17.4 13 Este 33 Este 0 -- -- 76
2020-11-27 00:00:00 17.4 10 Este 36 Sudeste 0 -- -- 77
2020-11-26 23:00:00 17.7 13 Sudeste 43 Sudeste 0 -- -- 75
2020-11-26 22:00:00 18.1 28 Sudeste 54 Sudeste 0 -- -- 72
2020-11-26 21:00:00 17.9 33 Sudeste 54 Sudeste 0 -- -- 75
2020-11-26 20:00:00 17.9 13 Este 51 Sudeste 0 -- -- 74
2020-11-26 19:00:00 18.1 32 Sudeste 53 Sudeste 0 -- -- 70
2020-11-26 18:00:00 18.3 30 Sudeste 58 Sudeste 0 -- -- 69
2020-11-26 17:00:00 18.4 32 Sudeste 59 Sudeste 0 -- -- 69
2020-11-26 16:00:00 18.6 31 Sudeste 59 Sudeste 0 -- -- 68
2020-11-26 15:00:00 18.8 30 Sudeste 57 Sudeste 0 -- -- 68
2020-11-26 14:00:00 18.9 34 Sudeste 64 Sudeste 0 -- -- 67
2020-11-26 13:00:00 18.5 17 Este 42 Este 0 -- -- 69
2020-11-26 12:00:00 18.4 21 Sudeste 49 Sudeste 0 -- -- 69
2020-11-26 11:00:00 18.4 21 Sudeste 50 Sudeste 0 -- -- 66
2020-11-26 10:00:00 17.5 23 Sudeste 59 Sudeste 0 -- -- 70
2020-11-26 09:00:00 17 29 Sudeste 51 Sudeste 0 -- -- 72
2020-11-26 08:00:00 16.7 27 Sudeste 53 Sudeste 0 -- -- 72
2020-11-26 07:00:00 16.7 27 Sudeste 51 Sudeste 0 -- -- 72
2020-11-26 06:00:00 16.5 30 Sudeste 53 Sudeste 0 -- -- 73
2020-11-26 05:00:00 16.4 27 Sudeste 46 Sudeste 0 -- -- 72
2020-11-26 04:00:00 16.4 20 Sudeste 45 Sur 0 -- -- 72
2020-11-26 03:00:00 16.3 20 Sudeste 41 Sudeste 0 -- -- 70
2020-11-26 02:00:00 16.2 18 Sudeste 40 Sudeste 0 -- -- 69
2020-11-26 01:00:00 16.1 16 Sudeste 34 Sudeste 0 -- -- 68
2020-11-26 00:00:00 16.2 18 Sudeste 37 Sudeste 0 -- -- 67
2020-11-25 23:00:00 16.3 14 Sudeste 40 Sudeste 0 -- -- 63
2020-11-25 22:00:00 16 18 Sudeste 35 Sudeste 0 -- -- 69
2020-11-25 21:00:00 15.9 18 Sudeste 32 Sudeste 0 -- -- 69
2020-11-25 20:00:00 16 19 Sudeste 34 Sudeste 0 -- -- 67
2020-11-25 19:00:00 15.4 5 Sudeste 23 Sudeste 0 -- -- 63
2020-11-25 18:00:00 15.9 11 Sur 23 Sudeste 0 -- -- 64
2020-11-25 17:00:00 16.5 12 Sur 27 Sudoeste 0 -- -- 61
2020-11-25 16:00:00 18.4 8 Sur 20 Sudeste 0 -- -- 55
2020-11-25 15:00:00 19.5 4 Nordeste 15 Sur 0 -- -- 50
2020-11-25 14:00:00 19.6 4 Oeste 20 Este 0 -- -- 46
2020-11-25 13:00:00 18.5 7 Este 27 Este 0 -- -- 51
2020-11-25 12:00:00 16.7 3 Sur 13 Nordeste 0 -- -- 64
2020-11-25 11:00:00 17 5 Sur 26 Sudeste 0 -- -- 61
2020-11-25 10:00:00 16.2 13 Sudeste 30 Sudeste 0 -- -- 61
2020-11-25 09:00:00 15.9 13 Sudeste 33 Sudeste 0 -- -- 64
2020-11-25 08:00:00 15.6 16 Sudeste 30 Sudeste 0 -- -- 64
2020-11-25 07:00:00 15.1 14 Sudeste 25 Sur 0 -- -- 62
2020-11-25 06:00:00 14 6 Sudoeste 11 Sur 0 -- -- 73
2020-11-25 05:00:00 14 6 Sur 10 Sur 0 -- -- 74
2020-11-25 04:00:00 14.1 7 Sur 12 Sur 0 -- -- 73
2020-11-25 03:00:00 14.4 6 Sudeste 10 Sudeste 0 -- -- 71
2020-11-25 02:00:00 14.3 6 Sudeste 11 Sudeste 0 -- -- 70
2020-11-25 01:00:00 13.9 4 Sudeste 12 Sur 0 -- -- 70
2020-11-25 00:00:00 13.1 8 Sur 16 Sur 0 -- -- 71
2020-11-24 23:00:00 14.2 6 Sur 21 Sur 0 -- -- 65
2020-11-24 22:00:00 15.1 5 Noroeste 16 Oeste 0 -- -- 61
2020-11-24 21:00:00 14.9 5 Este 13 Nordeste 0 -- -- 62
2020-11-24 20:00:00 14.2 3 Noroeste 12 Sur 0 -- -- 65
2020-11-24 19:00:00 12.2 8 Sur 15 Sur 0 -- -- 73
2020-11-24 18:00:00 12.5 10 Sur 13 Sur 0 -- -- 71
2020-11-24 17:00:00 15.2 6 Sudoeste 19 Sur 0 -- -- 61
2020-11-24 16:00:00 16.1 6 Sudoeste 26 Oeste 0 -- -- 58
2020-11-24 15:00:00 17.6 7 Sudoeste 28 Oeste 0 -- -- 55
2020-11-24 14:00:00 17.5 12 Oeste 21 Oeste 0 -- -- 56
2020-11-24 13:00:00 16.8 5 Oeste 13 Noroeste 0 -- -- 59
2020-11-24 12:00:00 16.5 4 Sudoeste 11 Sudoeste 0 -- -- 60
2020-11-24 11:00:00 13.8 10 Sur 15 Sur 0 -- -- 70
2020-11-24 10:00:00 13.6 10 Sur 18 Sudeste 0 -- -- 70
2020-11-24 09:00:00 13.3 10 Sur 21 Sur 0 -- -- 70
2020-11-24 08:00:00 12.6 9 Sur 18 Sur 0 -- -- 74
2020-11-24 07:00:00 12 12 Sur 17 Sur 0 -- -- 78
2020-11-24 06:00:00 11.7 12 Sur 17 Sur 0 -- -- 78
2020-11-24 05:00:00 11.1 12 Sur 15 Sur 0 -- -- 82
2020-11-24 04:00:00 11.6 12 Sur 17 Sur 0 -- -- 81
2020-11-24 03:00:00 11.4 12 Sur 15 Sur 0 -- -- 82
2020-11-24 02:00:00 11.1 12 Sur 14 Sur 0 -- -- 82
2020-11-24 01:00:00 11 12 Sur 15 Sur 0 -- -- 81
2020-11-24 00:00:00 11.1 11 Sur 15 Sur 0 -- -- 79
2020-11-23 23:00:00 11 12 Sur 15 Sur 0 -- -- 78
2020-11-23 22:00:00 11.2 12 Sur 17 Sur 0 -- -- 77
2020-11-23 21:00:00 11.7 6 Sur 10 Sur 0 -- -- 75
2020-11-23 20:00:00 12.4 8 Sur 12 Sur 0 -- -- 74
2020-11-23 19:00:00 12.7 8 Sur 10 Sur 0 -- -- 73
2020-11-23 18:00:00 12.7 6 Sur 9 Sur 0 -- -- 74
2020-11-23 17:00:00 14.8 6 Sur 9 Sur 0 -- -- 69
2020-11-23 16:00:00 16.2 6 Sur 10 Sur 0 -- -- 64
2020-11-23 15:00:00 17.2 6 Sur 9 Sur 0 -- -- 59
2020-11-23 14:00:00 16.8 2 Noroeste 8 Sur 0 -- -- 57
2020-11-23 13:00:00 16.6 3 Oeste 7 Oeste 0 -- -- 55
2020-11-23 12:00:00 17.3 0 Calma 10 Sur 0 -- -- 51
2020-11-23 11:00:00 15.3 6 Sur 11 Sur 0 -- -- 62
2020-11-23 10:00:00 14 9 Sur 12 Sur 0 -- -- 63
2020-11-23 09:00:00 12.7 9 Sur 13 Sur 0 -- -- 65
2020-11-23 08:00:00 12 8 Sur 12 Sudeste 0 -- -- 66
2020-11-23 07:00:00 12 8 Sur 12 Sur 0 -- -- 67
2020-11-23 06:00:00 11.4 6 Sudeste 11 Sur 0 -- -- 70
2020-11-23 05:00:00 11.5 6 Sudeste 10 Sur 0 -- -- 67
2020-11-23 04:00:00 11.9 8 Sur 13 Sur 0 -- -- 64
2020-11-23 03:00:00 12.2 9 Sur 13 Sur 0 -- -- 63
2020-11-23 02:00:00 12.1 7 Sur 10 Sur 0 -- -- 62
2020-11-23 01:00:00 11.7 6 Sur 13 Sur 0 -- -- 62
2020-11-23 00:00:00 12.3 8 Sur 14 Sur 0 -- -- 61
2020-11-22 23:00:00 11.9 8 Sur 17 Sur 0 -- -- 60
2020-11-22 22:00:00 11.8 6 Sur 14 Sudeste 0 -- -- 65
2020-11-22 21:00:00 12.7 9 Sudeste 16 Sudeste 0 -- -- 62
2020-11-22 20:00:00 12.8 9 Sudeste 15 Sudeste 0 -- -- 64
2020-11-22 19:00:00 13.1 8 Sudeste 17 Sudeste 0 -- -- 64
2020-11-22 18:00:00 13.8 6 Sudeste 22 Nordeste 0 -- -- 59
2020-11-22 17:00:00 14.7 15 Nordeste 23 Nordeste 0 -- -- 62
2020-11-22 16:00:00 15.3 14 Nordeste 27 Nordeste 0 -- -- 58
2020-11-22 15:00:00 15.5 15 Nordeste 26 Nordeste 0 -- -- 57
2020-11-22 14:00:00 15.7 13 Nordeste 29 Nordeste 0 -- -- 58
2020-11-22 13:00:00 15.3 14 Nordeste 28 Norte 0 -- -- 61
2020-11-22 12:00:00 15 15 Nordeste 29 Nordeste 0 -- -- 62
2020-11-22 11:00:00 14.9 17 Nordeste 29 Norte 0 -- -- 60
2020-11-22 10:00:00 14.6 10 Nordeste 24 Nordeste 0 -- -- 62
2020-11-22 09:00:00 14.3 13 Nordeste 21 Nordeste 0 -- -- 59
2020-11-22 08:00:00 13.2 7 Sudeste 18 Este 0 -- -- 62
2020-11-22 07:00:00 13.2 8 Sudeste 22 Norte 0 -- -- 62
2020-11-22 06:00:00 14.1 10 Norte 21 Norte 0 -- -- 63
2020-11-22 05:00:00 14 10 Norte 20 Nordeste 0 -- -- 64
2020-11-22 04:00:00 12.9 6 Sudeste 18 Este 0 -- -- 65
2020-11-22 03:00:00 13.1 7 Este 18 Sudeste 0 -- -- 63
2020-11-22 02:00:00 13.8 9 Este 26 Nordeste 0 -- -- 59
2020-11-22 01:00:00 14.2 12 Nordeste 26 Norte 0 -- -- 61
2020-11-22 00:00:00 14.4 15 Norte 27 Norte 0 -- -- 62
2020-11-21 23:00:00 14.5 14 Nordeste 28 Norte 0 -- -- 59
2020-11-21 22:00:00 14.4 15 Nordeste 31 Nordeste 0 -- -- 61
2020-11-21 21:00:00 14.3 16 Nordeste 30 Nordeste 0 -- -- 61
2020-11-21 20:00:00 14.4 16 Nordeste 32 Norte 0 -- -- 64
2020-11-21 19:00:00 14.4 17 Nordeste 32 Nordeste 0 -- -- 61
2020-11-21 18:00:00 14.4 18 Nordeste 30 Nordeste 0 -- -- 63
2020-11-21 17:00:00 14.5 17 Nordeste 28 Norte 0 -- -- 67
2020-11-21 16:00:00 14.7 15 Nordeste 32 Nordeste 0 -- -- 60
2020-11-21 15:00:00 14.5 20 Nordeste 33 Nordeste 0 -- -- 58
2020-11-21 14:00:00 14.7 19 Nordeste 35 Nordeste 0 -- -- 57
2020-11-21 13:00:00 14.2 21 Nordeste 40 Nordeste 0 -- -- 56
2020-11-21 12:00:00 13.9 23 Nordeste 41 Nordeste 0 -- -- 57
2020-11-21 11:00:00 14 23 Nordeste 37 Nordeste 0 -- -- 58
2020-11-21 10:00:00 14.2 22 Nordeste 39 Nordeste 0 -- -- 55
2020-11-21 09:00:00 14.1 22 Nordeste 42 Nordeste 0 -- -- 55
2020-11-21 08:00:00 14.3 24 Nordeste 40 Nordeste 0 -- -- 53
2020-11-21 07:00:00 13.9 17 Este 45 Nordeste 0 -- -- 52
2020-11-21 06:00:00 14.2 21 Nordeste 46 Nordeste 0 -- -- 51
2020-11-21 05:00:00 14.4 26 Nordeste 45 Nordeste 0 -- -- 50
2020-11-21 04:00:00 14.3 26 Nordeste 46 Nordeste 0 -- -- 52
2020-11-21 03:00:00 14 22 Nordeste 41 Nordeste 0 -- -- 54
2020-11-21 02:00:00 13.8 14 Este 37 Este 0 -- -- 55
2020-11-21 01:00:00 14 11 Este 35 Este 0 -- -- 51
2020-11-21 00:00:00 13.9 11 Este 32 Este 0 -- -- 50
2020-11-20 23:00:00 14.5 10 Este 39 Este 0 -- -- 49
2020-11-20 22:00:00 14 10 Sudeste 29 Norte 0 -- -- 58
2020-11-20 21:00:00 12.9 11 Sudeste 17 Sudeste 0 -- -- 45
2020-11-20 20:00:00 13.6 10 Sur 17 Sudeste 0 -- -- 40
2020-11-20 19:00:00 13.2 8 Sudeste 14 Sudeste 0 -- -- 58
2020-11-20 18:00:00 13.9 8 Sur 11 Sur 0 -- -- 69
2020-11-20 17:00:00 15.5 5 Sudeste 20 Nordeste 0 -- -- 66
2020-11-20 16:00:00 16.5 10 Nordeste 20 Norte 0 -- -- 65
2020-11-20 15:00:00 16.7 12 Nordeste 27 Nordeste 0 -- -- 66
2020-11-20 14:00:00 16.6 13 Nordeste 25 Nordeste 0 -- -- 63
2020-11-20 13:00:00 16.6 15 Nordeste 29 Nordeste 0 -- -- 62
2020-11-20 12:00:00 15.8 10 Nordeste 26 Este 0 -- -- 70
2020-11-20 11:00:00 15.4 15 Nordeste 29 Este 0 -- -- 73
2020-11-20 10:00:00 14.5 10 Este 33 Nordeste 0.2 -- -- 82
2020-11-20 09:00:00 15.8 9 Este 23 Nordeste 0 -- -- 72
2020-11-20 08:00:00 15.1 4 Sudeste 13 Sudeste 0 -- -- 80
2020-11-20 07:00:00 16 7 Este 15 Este 0 -- -- 69
2020-11-20 06:00:00 16.7 6 Sur 15 Sur 0 -- -- 72
2020-11-20 05:00:00 16.6 6 Sur 17 Sudoeste 0 -- -- 76
2020-11-20 04:00:00 16.2 8 Sur 10 Sur 0 -- -- 81
2020-11-20 03:00:00 16 8 Sur 12 Sur 0 -- -- 81
2020-11-20 02:00:00 15.6 9 Sur 13 Sur 0 -- -- 88
2020-11-20 01:00:00 15.5 10 Sur 12 Sur 0 -- -- 85
2020-11-20 00:00:00 16 9 Sur 17 Sudoeste 0 -- -- 77
2020-11-19 23:00:00 16.7 12 Sur 22 Sudoeste 0 -- -- 68
2020-11-19 22:00:00 15.7 13 Sur 16 Sur 0 -- -- 74
2020-11-19 21:00:00 15.8 9 Sur 12 Sur 0 -- -- 83
2020-11-19 20:00:00 16.1 9 Sur 11 Sur 0 -- -- 86
2020-11-19 19:00:00 16.2 7 Sur 11 Sur 0 -- -- 85
2020-11-19 18:00:00 15.4 6 Sur 11 Sur 0 -- -- 85
2020-11-19 17:00:00 16.3 9 Sur 11 Sur 0 -- -- 80
2020-11-19 16:00:00 19.8 5 Sur 10 Sur 0 -- -- 67
2020-11-19 15:00:00 20.2 0 Calma 7 Norte 0 -- -- 66
2020-11-19 14:00:00 20.3 0 Calma 7 Nordeste 0 -- -- 65
2020-11-19 13:00:00 18.8 4 Nordeste 7 Este 0 -- -- 68
2020-11-19 12:00:00 18.9 5 Nordeste 9 Nordeste 0 -- -- 68
2020-11-19 11:00:00 18.3 4 Nordeste 9 Este 0 -- -- 69
2020-11-19 10:00:00 17.4 3 Sur 9 Sur 0 -- -- 72
2020-11-19 09:00:00 16.1 6 Sur 9 Sudeste 0 -- -- 75
2020-11-19 08:00:00 16.4 5 Sudeste 9 Sudeste 0 -- -- 74
2020-11-19 07:00:00 15.9 7 Sur 10 Sur 0 -- -- 74
2020-11-19 06:00:00 15.3 7 Sur 12 Sur 0 -- -- 75
2020-11-19 05:00:00 16 5 Sudeste 9 Sur 0 -- -- 74
2020-11-19 04:00:00 15.9 5 Sudeste 9 Sudeste 0 -- -- 78
2020-11-19 03:00:00 15.8 4 Sur 9 Sur 0 -- -- 79
2020-11-19 02:00:00 15.1 8 Sur 12 Sur 0 -- -- 82
2020-11-19 01:00:00 14.6 8 Sur 12 Sur 0 -- -- 82
2020-11-19 00:00:00 14.2 7 Sur 13 Sur 0 -- -- 81
2020-11-18 23:00:00 14.2 9 Sur 12 Sur 0 -- -- 82
2020-11-18 22:00:00 15.1 5 Sur 9 Sudeste 0 -- -- 78
2020-11-18 21:00:00 14.5 7 Sur 12 Sudeste 0 -- -- 80
2020-11-18 20:00:00 14.8 6 Sur 9 Sudeste 0 -- -- 80
2020-11-18 19:00:00 15.3 7 Sur 11 Sur 0 -- -- 80
2020-11-18 18:00:00 15.4 5 Sur 10 Sur 0 -- -- 79
2020-11-18 17:00:00 15.8 8 Sur 11 Sur 0 -- -- 79
2020-11-18 16:00:00 19.1 6 Sur 9 Sur 0 -- -- 67
2020-11-18 15:00:00 20.2 2 Norte 7 Norte 0 -- -- 63
2020-11-18 14:00:00 19.9 0 Calma 8 Norte 0 -- -- 63
2020-11-18 13:00:00 19.3 3 Norte 5 Norte 0 -- -- 65
2020-11-18 12:00:00 19.9 4 Sur 7 Sur 0 -- -- 59
2020-11-18 11:00:00 17.1 6 Sur 14 Sur 0 -- -- 68
2020-11-18 10:00:00 15.5 12 Sur 15 Sur 0 -- -- 70
2020-11-18 09:00:00 15 9 Sur 13 Sudeste 0 -- -- 84
2020-11-18 08:00:00 14.4 8 Sur 10 Sur 0 -- -- 84
2020-11-18 07:00:00 14.3 8 Sur 10 Sur 0 -- -- 85
2020-11-18 06:00:00 14.3 6 Sur 9 Sur 0 -- -- 86
2020-11-18 05:00:00 13.6 7 Sur 10 Sur 0 -- -- 87
2020-11-18 04:00:00 13.8 5 Sur 10 Sur 0 -- -- 84
2020-11-18 03:00:00 14.6 7 Sur 9 Sur 0 -- -- 85
2020-11-18 02:00:00 14.1 5 Sur 8 Sudeste 0 -- -- 85
2020-11-18 01:00:00 15.1 5 Sur 9 Sudeste 0 -- -- 81
2020-11-18 00:00:00 15.3 6 Sur 12 Sur 0 -- -- 82
2020-11-17 23:00:00 15 4 Sudeste 12 Sudeste 0 -- -- 82
2020-11-17 22:00:00 15.6 5 Sudeste 12 Sudeste 0 -- -- 80
2020-11-17 21:00:00 15.5 7 Sur 11 Sur 0 -- -- 82
2020-11-17 20:00:00 15.4 6 Sudeste 9 Sudeste 0 -- -- 82
2020-11-17 19:00:00 15.5 6 Sudeste 10 Sur 0 -- -- 81
2020-11-17 18:00:00 15.8 6 Sur 10 Sur 0 -- -- 78
2020-11-17 17:00:00 17.5 4 Sur 7 Norte 0 -- -- 73
2020-11-17 16:00:00 19 4 Norte 9 Norte 0 -- -- 68
2020-11-17 15:00:00 18.9 3 Nordeste 8 Nordeste 0 -- -- 70
2020-11-17 14:00:00 18.8 4 Norte 8 Norte 0 -- -- 71
2020-11-17 13:00:00 18.8 5 Norte 9 Norte 0 -- -- 70
2020-11-17 12:00:00 18.5 4 Norte 12 Norte 0 -- -- 71
2020-11-17 11:00:00 17.8 5 Norte 12 Norte 0 -- -- 75
2020-11-17 10:00:00 15.7 9 Sur 12 Sur 0 -- -- 82
2020-11-17 09:00:00 15.4 7 Sur 12 Sur 0 -- -- 82
2020-11-17 08:00:00 15.2 8 Sur 12 Sur 0 -- -- 82
2020-11-17 07:00:00 15.3 9 Sur 14 Sudoeste 0 -- -- 82
2020-11-17 06:00:00 15.5 8 Sudoeste 13 Sur 0 -- -- 78
2020-11-17 05:00:00 15.3 8 Sur 12 Sur 0 -- -- 77
2020-11-17 04:00:00 14.8 9 Sur 13 Sur 0 -- -- 77
2020-11-17 03:00:00 14 9 Sur 13 Sur 0 -- -- 77
2020-11-17 02:00:00 14.5 7 Sur 12 Sur 0 -- -- 77
2020-11-17 01:00:00 14.6 9 Sur 12 Sur 0 -- -- 82
2020-11-17 00:00:00 14.9 7 Sur 13 Sur 0 -- -- 79
2020-11-16 23:00:00 15.1 9 Sur 13 Sur 0 -- -- 74
2020-11-16 22:00:00 16 7 Sur 12 Sur 0 -- -- 76
2020-11-16 21:00:00 16.4 4 Sudeste 7 Nordeste 0 -- -- 77
2020-11-16 20:00:00 17.8 3 Nordeste 12 Sudoeste 0 -- -- 72
2020-11-16 19:00:00 17 8 Sudoeste 11 Sur 0 -- -- 75
2020-11-16 18:00:00 17.3 6 Sudoeste 9 Sur 0 -- -- 74
2020-11-16 17:00:00 19.4 3 Norte 8 Este 0 -- -- 64
2020-11-16 16:00:00 21.1 4 Sur 19 Nordeste 0 -- -- 61
2020-11-16 15:00:00 19.1 14 Nordeste 33 Nordeste 0 -- -- 70
2020-11-16 14:00:00 19.1 16 Nordeste 28 Nordeste 0 -- -- 70
2020-11-16 13:00:00 20.4 9 Norte 21 Norte 0 -- -- 65
2020-11-16 12:00:00 20.9 4 Sudoeste 36 Nordeste 0 -- -- 71
2020-11-16 11:00:00 19.6 18 Nordeste 33 Nordeste 0 -- -- 77
2020-11-16 10:00:00 19.3 13 Nordeste 22 Nordeste 0 -- -- 81
2020-11-16 09:00:00 20.5 5 Nordeste 11 Este 0 -- -- 71
2020-11-16 08:00:00 19.6 4 Sudeste 14 Sudoeste 0 -- -- 72
2020-11-16 07:00:00 20 5 Sudoeste 30 Sur 0 -- -- 71
2020-11-16 06:00:00 20.9 15 Sudoeste 35 Sur 0 -- -- 66
2020-11-16 05:00:00 21 21 Sudoeste 35 Sudoeste 0 -- -- 65
2020-11-16 04:00:00 21.1 18 Sudoeste 38 Sur 0 -- -- 66
2020-11-16 03:00:00 21.5 16 Sudoeste 38 Sur 0 -- -- 63
2020-11-16 02:00:00 21.4 17 Sudoeste 33 Sur 0 -- -- 66
2020-11-16 01:00:00 21.5 16 Sudoeste 38 Sudoeste 0 -- -- 62
2020-11-16 00:00:00 21.6 15 Sudoeste 35 Sur 0 -- -- 61
2020-11-15 23:00:00 21.5 17 Sudoeste 40 Sudoeste 0 -- -- 59
2020-11-15 22:00:00 21.4 22 Sudoeste 44 Sudoeste 0 -- -- 57
2020-11-15 21:00:00 20.9 19 Sudoeste 47 Sudoeste 0 -- -- 59
2020-11-15 20:00:00 20.3 21 Sudoeste 40 Sur 0 -- -- 61
2020-11-15 19:00:00 19.7 14 Sudoeste 26 Sudoeste 0 -- -- 61
2020-11-15 18:00:00 19.6 13 Sudoeste 38 Sudoeste 0 -- -- 57
2020-11-15 17:00:00 19.3 12 Sudoeste 31 Oeste 0 -- -- 66
2020-11-15 16:00:00 19.8 15 Oeste 32 Oeste 0 -- -- 72
2020-11-15 15:00:00 19.9 18 Sudoeste 33 Oeste 0 -- -- 73
2020-11-15 14:00:00 20.1 14 Sudoeste 36 Oeste 0 -- -- 74
2020-11-15 13:00:00 19.4 19 Oeste 32 Sudoeste 0 -- -- 75
2020-11-15 12:00:00 19.5 17 Sudoeste 28 Sudoeste 0 -- -- 76
2020-11-15 11:00:00 19.5 12 Sudoeste 27 Oeste 0 -- -- 76
2020-11-15 10:00:00 19 14 Sudoeste 27 Sudoeste 0 -- -- 76
2020-11-15 09:00:00 18.4 8 Sudoeste 22 Sur 0 -- -- 75
2020-11-15 08:00:00 17.5 6 Sur 14 Sudoeste 0 -- -- 78
2020-11-15 07:00:00 17.5 6 Sudoeste 12 Sudoeste 0 -- -- 79
2020-11-15 06:00:00 17.2 6 Sudoeste 20 Sur 0 -- -- 81
2020-11-15 05:00:00 16.8 9 Sudoeste 15 Sudoeste 0 -- -- 82
2020-11-15 04:00:00 17.5 8 Sudoeste 17 Sudoeste 0 -- -- 82
2020-11-15 03:00:00 17.6 10 Sudoeste 14 Sur 0 -- -- 83
2020-11-15 02:00:00 18 6 Sudoeste 11 Sudoeste 0 -- -- 84
2020-11-15 01:00:00 18.1 5 Sudoeste 13 Sudoeste 0 -- -- 84
2020-11-15 00:00:00 17.8 5 Sudoeste 11 Sudoeste 0 -- -- 78
2020-11-14 23:00:00 18 6 Sudoeste 12 Sudoeste 0 -- -- 82
2020-11-14 22:00:00 17.2 7 Sur 11 Sur 0 -- -- 78
2020-11-14 21:00:00 16.8 8 Sur 11 Sur 0 -- -- 76
2020-11-14 20:00:00 18.3 6 Sudoeste 13 Sudoeste 0 -- -- 83
2020-11-14 19:00:00 17.1 6 Sur 13 Oeste 0 -- -- 82
2020-11-14 18:00:00 18.7 5 Oeste 16 Oeste 0 -- -- 84
2020-11-14 17:00:00 19 7 Oeste 16 Oeste 0 -- -- 81
2020-11-14 16:00:00 19.4 6 Oeste 15 Oeste 0 -- -- 81
2020-11-14 15:00:00 19.7 8 Oeste 13 Oeste 0 -- -- 82
2020-11-14 14:00:00 19.9 6 Oeste 15 Oeste 0 -- -- 78
2020-11-14 13:00:00 20 10 Oeste 17 Sudoeste 0 -- -- 76
2020-11-14 12:00:00 20.1 8 Oeste 15 Oeste 0 -- -- 74
2020-11-14 11:00:00 20 5 Oeste 11 Sur 0 -- -- 64
2020-11-14 10:00:00 18.1 8 Sur 12 Sur 0 -- -- 76
2020-11-14 09:00:00 17.1 8 Sur 13 Sur 0 -- -- 78
2020-11-14 08:00:00 16.1 10 Sur 12 Sur 0 -- -- 81
2020-11-14 07:00:00 16 10 Sur 13 Sur 0 -- -- 82
2020-11-14 06:00:00 16.1 9 Sur 13 Sur 0 -- -- 84
2020-11-14 05:00:00 16.1 10 Sur 13 Sur 0 -- -- 84
2020-11-14 04:00:00 16.3 9 Sur 11 Sur 0 -- -- 82
2020-11-14 03:00:00 16.6 10 Sur 13 Sur 0 -- -- 74
2020-11-14 02:00:00 17.5 6 Sur 18 Sudeste 0 -- -- 59
2020-11-14 01:00:00 16.9 6 Sur 12 Sur 0 -- -- 58
2020-11-14 00:00:00 18.5 3 Sur 14 Este 0 -- -- 46
2020-11-13 23:00:00 20.1 8 Este 15 Este 0 -- -- 39
2020-11-13 22:00:00 19.8 7 Este 17 Este 0 -- -- 41
2020-11-13 21:00:00 19.9 10 Este 19 Sudeste 0 -- -- 43
2020-11-13 20:00:00 19.5 8 Este 19 Este 0 -- -- 50
2020-11-13 19:00:00 19.1 8 Este 23 Este 0 -- -- 60
2020-11-13 18:00:00 18 2 Noroeste 9 Sur 0 -- -- 82
2020-11-13 17:00:00 18.5 5 Sur 10 Sur 0 -- -- 79
2020-11-13 16:00:00 20.5 5 Noroeste 14 Nordeste 0 -- -- 70
2020-11-13 15:00:00 20.1 5 Norte 16 Nordeste 0 -- -- 70
2020-11-13 14:00:00 20 6 Norte 17 Norte 0 -- -- 69
2020-11-13 13:00:00 19.5 6 Norte 16 Nordeste 0 -- -- 67
2020-11-13 12:00:00 19.1 7 Nordeste 16 Nordeste 0 -- -- 68
2020-11-13 11:00:00 19.1 5 Nordeste 15 Este 0 -- -- 66
2020-11-13 10:00:00 18.3 13 Nordeste 24 Nordeste 0 -- -- 69
2020-11-13 09:00:00 18.3 14 Nordeste 22 Nordeste 0 -- -- 72
2020-11-13 08:00:00 18.2 11 Nordeste 21 Este 0 -- -- 73
2020-11-13 07:00:00 17.9 9 Este 16 Nordeste 0 -- -- 77
2020-11-13 06:00:00 14.8 10 Sur 13 Sur 0 -- -- 83
2020-11-13 05:00:00 14.9 10 Sur 13 Sur 0 -- -- 81
2020-11-13 04:00:00 15.1 9 Sur 13 Sur 0 -- -- 82
2020-11-13 03:00:00 14.7 11 Sur 14 Sur 0 -- -- 80
2020-11-13 02:00:00 14.9 8 Sur 13 Sur 0 -- -- 78
2020-11-13 01:00:00 14.7 10 Sur 13 Sur 0 -- -- 79
2020-11-13 00:00:00 14.7 9 Sur 13 Sur 0 -- -- 81
2020-11-12 23:00:00 14.8 10 Sur 14 Sur 0 -- -- 81
2020-11-12 22:00:00 15 9 Sur 14 Sur 0 -- -- 82
2020-11-12 21:00:00 16.8 5 Sudeste 15 Sudeste 0 -- -- 75
2020-11-12 20:00:00 16.5 8 Sur 12 Sur 0 -- -- 76
2020-11-12 19:00:00 15.6 9 Sur 13 Sur 0 -- -- 76
2020-11-12 18:00:00 16.5 7 Sur 9 Sur 0 -- -- 73
2020-11-12 17:00:00 17.6 5 Sur 12 Nordeste 0 -- -- 70
2020-11-12 16:00:00 19 8 Nordeste 14 Nordeste 0 -- -- 65
2020-11-12 15:00:00 19.2 8 Nordeste 13 Nordeste 0 -- -- 63
2020-11-12 14:00:00 19 5 Norte 9 Norte 0 -- -- 66
2020-11-12 13:00:00 20.1 2 Norte 6 Norte 0 -- -- 61
2020-11-12 12:00:00 19.6 2 Este 7 Sur 0 -- -- 57
2020-11-12 11:00:00 18.4 6 Sur 10 Sur 0 -- -- 68
2020-11-12 10:00:00 16.9 6 Sur 12 Sur 0 -- -- 71
2020-11-12 09:00:00 15.6 7 Sur 11 Sur 0 -- -- 74
2020-11-12 08:00:00 15 8 Sur 12 Sur 0 -- -- 74
2020-11-12 07:00:00 14.2 6 Sur 10 Sur 0 -- -- 69
2020-11-12 06:00:00 14 8 Sur 12 Sur 0 -- -- 71
2020-11-12 05:00:00 14.1 9 Sur 13 Sur 0 -- -- 74
2020-11-12 04:00:00 14.9 9 Sur 12 Sur 0 -- -- 75
2020-11-12 03:00:00 14.4 7 Sur 12 Sur 0 -- -- 73
2020-11-12 02:00:00 15 8 Sur 13 Sudoeste 0 -- -- 71
2020-11-12 01:00:00 16.6 7 Sudeste 19 Sudoeste 0 -- -- 69
2020-11-12 00:00:00 15.6 7 Sur 12 Sur 0 -- -- 74
2020-11-11 23:00:00 14.9 6 Sur 11 Sur 0 -- -- 79
2020-11-11 22:00:00 14.7 5 Sudeste 13 Sur 0 -- -- 79
2020-11-11 21:00:00 14.2 10 Sur 15 Sur 0 -- -- 81
2020-11-11 20:00:00 13.9 11 Sur 15 Sur 0 -- -- 84
2020-11-11 19:00:00 14.3 12 Sur 15 Sur 0 -- -- 84
2020-11-11 18:00:00 14.9 11 Sur 13 Sur 0 -- -- 82
2020-11-11 17:00:00 17.2 5 Sur 8 Sur 0 -- -- 75
2020-11-11 16:00:00 18.2 3 Sudoeste 7 Sur 0 -- -- 73
2020-11-11 15:00:00 18.3 4 Oeste 9 Sudoeste 0 -- -- 70
2020-11-11 14:00:00 18.6 5 Noroeste 10 Noroeste 0 -- -- 70
2020-11-11 13:00:00 17.8 4 Sudoeste 9 Sur 0 -- -- 70
2020-11-11 12:00:00 18.3 4 Sur 5 Sur 0 -- -- 68
2020-11-11 11:00:00 18 2 Sur 12 Sur 0 -- -- 69
2020-11-11 10:00:00 15.7 10 Sur 15 Sur 0 -- -- 75
2020-11-11 09:00:00 14.1 12 Sur 15 Sur 0 -- -- 79
2020-11-11 08:00:00 13.3 11 Sur 14 Sur 0 -- -- 80
2020-11-11 07:00:00 13.2 11 Sur 15 Sur 0 -- -- 81
2020-11-11 06:00:00 13.4 12 Sur 15 Sur 0 -- -- 82
2020-11-11 05:00:00 14.5 9 Sur 13 Sur 0 -- -- 79
2020-11-11 04:00:00 15.2 6 Sudeste 14 Sur 0 -- -- 84
2020-11-11 03:00:00 15.4 6 Sudeste 13 Sudeste 0 -- -- 84
2020-11-11 02:00:00 15.4 7 Sudeste 15 Sudeste 0 -- -- 83
2020-11-11 01:00:00 15.6 7 Sudeste 14 Sudeste 0 -- -- 83
2020-11-11 00:00:00 15.2 7 Sudeste 10 Sur 0 -- -- 83
2020-11-10 23:00:00 15 7 Sudeste 12 Sudeste 0 -- -- 82
2020-11-10 22:00:00 15.5 6 Sudeste 12 Sudeste 0 -- -- 85
2020-11-10 21:00:00 15.5 7 Sur 10 Sudeste 0 -- -- 86
2020-11-10 20:00:00 16.5 5 Sudeste 12 Sudeste 0 -- -- 84
2020-11-10 19:00:00 17.5 5 Este 15 Este 0 -- -- 82
2020-11-10 18:00:00 17.8 8 Este 19 Nordeste 0 -- -- 81
2020-11-10 17:00:00 18.4 10 Nordeste 18 Nordeste 0 -- -- 80
2020-11-10 16:00:00 18.9 10 Nordeste 16 Nordeste 0 -- -- 74
2020-11-10 15:00:00 19.1 7 Nordeste 15 Nordeste 0 -- -- 74
2020-11-10 14:00:00 19.2 6 Nordeste 10 Nordeste 0 -- -- 73
2020-11-10 13:00:00 19.3 4 Nordeste 8 Norte 0 -- -- 72
2020-11-10 12:00:00 19.4 2 Norte 6 Norte 0 -- -- 71
2020-11-10 11:00:00 19.6 3 Sur 9 Sur 0 -- -- 73
2020-11-10 10:00:00 17.7 8 Sur 10 Sur 0 -- -- 80
2020-11-10 09:00:00 16.6 4 Sur 9 Sur 0 -- -- 86
2020-11-10 08:00:00 15.4 7 Sur 10 Sur 0 -- -- 89
2020-11-10 07:00:00 14.7 8 Sur 12 Sur 0 -- -- 89
2020-11-10 06:00:00 14.1 10 Sur 13 Sur 0 -- -- 88
2020-11-10 05:00:00 14.3 8 Sur 12 Sur 0 -- -- 88
2020-11-10 04:00:00 14.6 7 Sur 14 Sur 0 -- -- 87
2020-11-10 03:00:00 15 7 Sur 13 Sur 0 -- -- 87
2020-11-10 02:00:00 14.2 10 Sur 14 Sur 0 -- -- 82
2020-11-10 01:00:00 15 6 Sur 11 Sur 0 -- -- 82
2020-11-10 00:00:00 15.6 7 Sur 12 Sur 0 -- -- 87
2020-11-09 23:00:00 15.4 8 Sur 12 Sur 0 -- -- 87
2020-11-09 22:00:00 15.9 6 Sur 10 Sur 0 -- -- 85
2020-11-09 21:00:00 15.9 6 Sur 14 Sur 0 -- -- 85
2020-11-09 20:00:00 14.9 7 Sur 13 Sur 0 -- -- 72
2020-11-09 19:00:00 15.1 8 Sur 13 Sur 0 -- -- 73
2020-11-09 18:00:00 15.9 5 Sur 11 Sur 0 -- -- 82
2020-11-09 17:00:00 18.9 0 Calma 6 Nordeste 0 -- -- 80
2020-11-09 16:00:00 18.9 4 Norte 10 Norte 0 -- -- 80
2020-11-09 15:00:00 19.6 4 Nordeste 8 Norte 0 -- -- 76
2020-11-09 14:00:00 19.8 2 Norte 9 Norte 0 -- -- 77
2020-11-09 13:00:00 19.4 6 Norte 9 Norte 0 -- -- 78
2020-11-09 12:00:00 19.3 4 Nordeste 8 Nordeste 0 -- -- 80
2020-11-09 11:00:00 19.4 0 Calma 8 Sur 0 -- -- 79
2020-11-09 10:00:00 18.1 7 Sur 10 Sur 0 -- -- 78
2020-11-09 09:00:00 16.7 8 Sur 11 Sudoeste 0 -- -- 81
2020-11-09 08:00:00 15.9 6 Sur 8 Sur 0 -- -- 83
2020-11-09 07:00:00 14.8 6 Sur 9 Sur 0 -- -- 83
2020-11-09 06:00:00 14.7 7 Sur 12 Sur 0 -- -- 79
2020-11-09 05:00:00 14.3 10 Sur 14 Sur 0 -- -- 80
2020-11-09 04:00:00 14.5 9 Sur 13 Sur 0 -- -- 76
2020-11-09 03:00:00 14.6 8 Sur 13 Sur 0 -- -- 76
2020-11-09 02:00:00 14.4 11 Sur 14 Sur 0 -- -- 77
2020-11-09 01:00:00 14.5 9 Sur 14 Sur 0 -- -- 81
2020-11-09 00:00:00 14.7 8 Sur 13 Sur 0 -- -- 84
2020-11-08 23:00:00 14.8 9 Sur 12 Sur 0 -- -- 82
2020-11-08 22:00:00 15.3 7 Sur 11 Sur 0 -- -- 83
2020-11-08 21:00:00 15.8 9 Sur 14 Sur 0 -- -- 81
2020-11-08 20:00:00 15.4 12 Sur 14 Sur 0 -- -- 86
2020-11-08 19:00:00 16 7 Sur 10 Sur 0 -- -- 87
2020-11-08 18:00:00 16.9 5 Sur 9 Sur 0 -- -- 86
2020-11-08 17:00:00 19 0 Calma 6 Noroeste 0 -- -- 81
2020-11-08 16:00:00 19.2 3 Noroeste 8 Noroeste 0 -- -- 81
2020-11-08 15:00:00 19.3 4 Noroeste 10 Noroeste 0 -- -- 82
2020-11-08 14:00:00 19.5 4 Noroeste 12 Noroeste 0 -- -- 81
2020-11-08 13:00:00 20.3 6 Oeste 10 Oeste 0 -- -- 75
2020-11-08 12:00:00 20.4 3 Norte 6 Oeste 0 -- -- 66
2020-11-08 11:00:00 20.8 0 Calma 11 Sur 0 -- -- 63
2020-11-08 10:00:00 18.3 9 Sur 14 Sur 0 -- -- 68
2020-11-08 09:00:00 16.3 13 Sur 15 Sur 0 -- -- 72
2020-11-08 08:00:00 15.9 8 Sur 14 Sur 0 -- -- 70
2020-11-08 07:00:00 15.3 11 Sur 16 Sur 0 -- -- 73
2020-11-08 06:00:00 15.4 11 Sur 15 Sur 0 -- -- 72
2020-11-08 05:00:00 15.5 9 Sur 13 Sur 0 -- -- 71
2020-11-08 04:00:00 15.5 7 Sur 14 Sur 0 -- -- 71
2020-11-08 03:00:00 16.1 5 Sur 14 Sur 0 -- -- 69
2020-11-08 02:00:00 15.8 9 Sur 14 Sur 0 -- -- 72
2020-11-08 01:00:00 16.8 7 Sur 18 Sudoeste 0 -- -- 75
2020-11-08 00:00:00 16.7 9 Sudoeste 16 Sudoeste 0 -- -- 72
2020-11-07 23:00:00 17.3 11 Sudoeste 16 Sur 0 -- -- 64
2020-11-07 22:00:00 17.8 12 Sudoeste 17 Sudoeste 0 -- -- 64
2020-11-07 21:00:00 18.8 8 Sudoeste 19 Oeste 0 -- -- 67
2020-11-07 20:00:00 19.8 6 Noroeste 36 Oeste 0 -- -- 69
2020-11-07 19:00:00 20.1 12 Sur 34 Sur 0 -- -- 68
2020-11-07 18:00:00 20.3 19 Sudeste 37 Sudeste 0 -- -- 64
2020-11-07 17:00:00 21.4 15 Sur 36 Sudeste 0 -- -- 55
2020-11-07 16:00:00 22.6 8 Sur 27 Oeste 0 -- -- 50
2020-11-07 15:00:00 23.2 6 Este 30 Sudeste 0 -- -- 49
2020-11-07 14:00:00 22.1 13 Sudeste 56 Sur 0 -- -- 54
2020-11-07 13:00:00 21.3 22 Sudeste 51 Sur 0 -- -- 55
2020-11-07 12:00:00 18.2 27 Sudeste 48 Sur 8.4 -- -- 68
2020-11-07 11:00:00 18.4 17 Sur 44 Sudeste 1.8 -- -- 72
2020-11-07 10:00:00 17.9 22 Sur 44 Sur 2.4 -- -- 74
2020-11-07 09:00:00 21.4 11 Sur 34 Sudeste 0 -- -- 70
2020-11-07 08:00:00 21.2 21 Sudeste 40 Sudeste 0 -- -- 72
2020-11-07 07:00:00 22.4 21 Sur 54 Sur 0 -- -- 61
2020-11-07 06:00:00 22.3 25 Sur 58 Sudeste 0 -- -- 63
2020-11-07 05:00:00 21.5 34 Sudeste 60 Sudeste 0 -- -- 70
2020-11-07 04:00:00 21.2 32 Sudeste 54 Sudeste 0 -- -- 70
2020-11-07 03:00:00 21 30 Sudeste 59 Sudeste 0 -- -- 70
2020-11-07 02:00:00 20.7 34 Sudeste 57 Sudeste 0 -- -- 72
2020-11-07 01:00:00 20.8 33 Sudeste 63 Sudeste 0 -- -- 70
2020-11-07 00:00:00 20.9 37 Sudeste 68 Sudeste 0 -- -- 69
2020-11-06 23:00:00 20.7 42 Sudeste 70 Sudeste 0 -- -- 71
2020-11-06 22:00:00 21.1 41 Sudeste 74 Sudeste 0 -- -- 66
2020-11-06 21:00:00 20.8 46 Sudeste 74 Sudeste 0 -- -- 70
2020-11-06 20:00:00 20.6 46 Sudeste 77 Sudeste 0 -- -- 73
2020-11-06 19:00:00 20.8 44 Sudeste 78 Sudeste 0 -- -- 72
2020-11-06 18:00:00 20.8 45 Sudeste 81 Sudeste 0 -- -- 73
2020-11-06 17:00:00 21.6 31 Sudeste 64 Sudeste 0 -- -- 70
2020-11-06 16:00:00 22.6 37 Sudeste 70 Sudeste 0 -- -- 67
2020-11-06 15:00:00 23 37 Sudeste 60 Sudeste 0 -- -- 64
2020-11-06 14:00:00 23 30 Sudeste 58 Sudeste 0 -- -- 65
2020-11-06 13:00:00 22.5 32 Sudeste 63 Sudeste 0 -- -- 68
2020-11-06 12:00:00 21.9 31 Sudeste 62 Este 0 -- -- 68
2020-11-06 11:00:00 21.3 32 Sudeste 65 Sudeste 0 -- -- 71
2020-11-06 10:00:00 21.2 33 Sudeste 69 Sudeste 0 -- -- 71
2020-11-06 09:00:00 20.5 36 Sudeste 66 Sudeste 0 -- -- 73
2020-11-06 08:00:00 20.5 32 Sudeste 59 Sudeste 0 -- -- 71
2020-11-06 07:00:00 20.3 40 Sudeste 66 Sudeste 0 -- -- 72
2020-11-06 06:00:00 20.2 39 Sudeste 66 Sudeste 0 -- -- 72
2020-11-06 05:00:00 20.3 37 Sudeste 65 Sudeste 0 -- -- 71
2020-11-06 04:00:00 20.3 47 Sudeste 74 Sudeste 0 -- -- 71
2020-11-06 03:00:00 20.1 42 Sudeste 69 Sudeste 0 -- -- 72
2020-11-06 02:00:00 20.1 40 Sudeste 70 Sudeste 0 -- -- 74
2020-11-06 01:00:00 19.9 40 Sudeste 73 Sudeste 0 -- -- 76
2020-11-06 00:00:00 19.9 40 Sudeste 77 Sudeste 0 -- -- 75
2020-11-05 23:00:00 20 43 Sudeste 76 Sudeste 0 -- -- 74
2020-11-05 22:00:00 19.8 41 Sudeste 71 Sudeste 0 -- -- 75
2020-11-05 21:00:00 19.9 46 Sudeste 73 Sudeste 0 -- -- 73
2020-11-05 20:00:00 19.8 37 Sudeste 68 Sudeste 0 -- -- 75
2020-11-05 19:00:00 19.6 37 Sudeste 67 Sudeste 0 -- -- 75
2020-11-05 18:00:00 19.6 39 Sudeste 67 Sudeste 0 -- -- 75
2020-11-05 17:00:00 19.9 36 Sudeste 56 Sudeste 0 -- -- 72
2020-11-05 16:00:00 20.2 20 Sudeste 53 Sudeste 0 -- -- 70
2020-11-05 15:00:00 20.4 22 Este 49 Sudeste 0 -- -- 67
2020-11-05 14:00:00 20.2 19 Sudeste 43 Este 0 -- -- 65
2020-11-05 13:00:00 20.4 20 Sudeste -- -- -- -- -- 67
2020-11-05 12:00:00 20.3 22 Este 48 Este 0 -- -- 66
2020-11-05 11:00:00 19.9 17 Este 41 Este 0 -- -- 69
2020-11-05 10:00:00 20.4 20 Este 37 Este 0 -- -- 63
2020-11-05 09:00:00 19 17 Este 45 Sudeste 0 -- -- 68
2020-11-05 08:00:00 18.3 17 Sudeste 39 Este 0 -- -- 71
2020-11-05 07:00:00 18.4 17 Este 40 Este 0 -- -- 69
2020-11-05 06:00:00 18.1 17 Nordeste 39 Nordeste 0 -- -- 71
2020-11-05 05:00:00 17.8 18 Nordeste 26 Nordeste 0 -- -- 72
2020-11-05 04:00:00 17.5 10 Nordeste 20 Nordeste 0 -- -- 71
2020-11-05 03:00:00 17 9 Este 17 Este 0 -- -- 71
2020-11-05 02:00:00 16.5 8 Este 18 Este 0 -- -- 73
2020-11-05 01:00:00 16.9 8 Este 24 Este 0 -- -- 72
2020-11-05 00:00:00 16.9 7 Sudeste 22 Nordeste 0 -- -- 72
2020-11-04 23:00:00 17.3 12 Este 26 Sudeste 0 -- -- 70
2020-11-04 22:00:00 17.3 9 Sudeste 30 Sudeste 0 -- -- 66
2020-11-04 21:00:00 17 19 Sudeste 34 Sudeste 0 -- -- 67
2020-11-04 20:00:00 17.1 12 Este 28 Este 0 -- -- 67
2020-11-04 19:00:00 17.1 8 Sudeste 16 Sudeste 0 -- -- 68
2020-11-04 18:00:00 17.3 12 Sudeste 22 Este 0 -- -- 69
2020-11-04 17:00:00 17.8 11 Este 26 Sudeste 0 -- -- 69
2020-11-04 16:00:00 18.4 12 Este 31 Norte 0 -- -- 69
2020-11-04 15:00:00 18.4 20 Nordeste 33 Nordeste 0 -- -- 73
2020-11-04 14:00:00 18.1 16 Nordeste 33 Nordeste 0 -- -- 75
2020-11-04 13:00:00 18.9 10 Este 27 Sudeste 0 -- -- 67
2020-11-04 12:00:00 18.6 14 Este 27 Este 0 -- -- 66
2020-11-04 11:00:00 18.4 11 Sudeste 25 Sudeste 0 -- -- 67
2020-11-04 10:00:00 18.5 12 Este 22 Este 0 -- -- 69
2020-11-04 09:00:00 17.7 12 Este 23 Nordeste 0 -- -- 70
2020-11-04 08:00:00 17 8 Este 21 Este 0 -- -- 71
2020-11-04 07:00:00 16.8 14 Nordeste 21 Nordeste 0 -- -- 70
2020-11-04 06:00:00 16.7 9 Este 21 Este 0 -- -- 69
2020-11-04 05:00:00 17 8 Este 22 Nordeste 0 -- -- 66
2020-11-04 04:00:00 17 10 Este 31 Sudeste 0 -- -- 66
2020-11-04 03:00:00 17 12 Este 26 Este 0 -- -- 66
2020-11-04 02:00:00 17.1 11 Este 23 Este 0 -- -- 67
2020-11-04 01:00:00 17.2 8 Sudeste 27 Sudeste 0 -- -- 68
2020-11-04 00:00:00 17.2 7 Este 17 Sudeste 0 -- -- 70
2020-11-03 23:00:00 17.4 6 Sudeste 18 Este 0 -- -- 70
2020-11-03 22:00:00 18.4 7 Este 18 Este 0 -- -- 64
2020-11-03 21:00:00 18.7 8 Este 16 Este 0 -- -- 69
2020-11-03 20:00:00 18.3 4 Sudeste 11 Sur 0 -- -- 71
2020-11-03 19:00:00 18.8 5 Sudeste 12 Este 0 -- -- 69
2020-11-03 18:00:00 18.9 5 Este 17 Nordeste 0 -- -- 69
2020-11-03 17:00:00 19.5 6 Este 18 Nordeste 0 -- -- 68
2020-11-03 16:00:00 19.7 11 Nordeste 17 Nordeste 0 -- -- 68
2020-11-03 15:00:00 19.9 9 Nordeste 17 Nordeste 0 -- -- 67
2020-11-03 14:00:00 20.3 10 Nordeste 18 Nordeste 0 -- -- 66
2020-11-03 13:00:00 19.6 8 Nordeste 16 Nordeste 0 -- -- 69
2020-11-03 12:00:00 19.1 10 Nordeste 19 Nordeste 0 -- -- 72
2020-11-03 11:00:00 18.8 10 Este 15 Nordeste 0 -- -- 72
2020-11-03 10:00:00 19.8 6 Sudeste 16 Sudeste 0 -- -- 68
2020-11-03 09:00:00 18.2 8 Sudeste 18 Sudeste 0 -- -- 73
2020-11-03 08:00:00 16.8 8 Sudeste 14 Sudeste 0 -- -- 79
2020-11-03 07:00:00 16.7 7 Sudeste 16 Sudeste 0 -- -- 78
2020-11-03 06:00:00 16 9 Sudeste 17 Sudeste 0 -- -- 81
2020-11-03 05:00:00 16 6 Sudeste 16 Sudeste 0 -- -- 85
2020-11-03 04:00:00 16.6 8 Sudeste 14 Sudeste 0 -- -- 85
2020-11-03 03:00:00 16.6 9 Sur 13 Sudeste 0 -- -- 85
2020-11-03 02:00:00 16.3 8 Sur 14 Sudeste 0 -- -- 85
2020-11-03 01:00:00 14.9 7 Sur 13 Sur 0 -- -- 86
2020-11-03 00:00:00 15.1 10 Sur 14 Sur 0 -- -- 85
2020-11-02 23:00:00 15 11 Sur 13 Sur 0 -- -- 80
2020-11-02 22:00:00 15 11 Sur 15 Sur 0 -- -- 80
2020-11-02 21:00:00 15.4 8 Sur 13 Sur 0 -- -- 78
2020-11-02 20:00:00 15.2 10 Sur 14 Sur 0 -- -- 75
2020-11-02 19:00:00 16 10 Sur 17 Sur 0 -- -- 81
2020-11-02 18:00:00 16.5 12 Sur 15 Sur 0 -- -- 82
2020-11-02 17:00:00 19.2 10 Sur 13 Sur 0 -- -- 75
2020-11-02 16:00:00 20.8 4 Nordeste 13 Norte 0 -- -- 74
2020-11-02 15:00:00 20.3 7 Norte 14 Nordeste 0 -- -- 77
2020-11-02 14:00:00 20.4 8 Norte 11 Norte 0 -- -- 75
2020-11-02 13:00:00 20.2 6 Norte 9 Norte 0 -- -- 74
2020-11-02 12:00:00 19.9 4 Norte 12 Oeste 0 -- -- 70
2020-11-02 11:00:00 20.1 5 Sudoeste 8 Sudoeste 0 -- -- 68
2020-11-02 10:00:00 17.3 6 Sur 12 Sur 0 -- -- 74
2020-11-02 09:00:00 15.5 12 Sur 14 Sur 0 -- -- 76
2020-11-02 08:00:00 14.6 9 Sur 14 Sur 0 -- -- 81
2020-11-02 07:00:00 14.4 12 Sur 14 Sur 0 -- -- 84
2020-11-02 06:00:00 14.5 9 Sur 13 Sur 0 -- -- 84
2020-11-02 05:00:00 14.8 10 Sur 15 Sur 0 -- -- 80
2020-11-02 04:00:00 15.2 9 Sur 15 Sur 0 -- -- 79
2020-11-02 03:00:00 15.2 11 Sur 15 Sur 0 -- -- 76
2020-11-02 02:00:00 15.3 6 Sur 13 Sur 0 -- -- 82
2020-11-02 01:00:00 15.7 6 Sur 12 Sur 0 -- -- 81
2020-11-02 00:00:00 16 9 Sur 14 Sur 0 -- -- 76